Time;durP1;ratioP1;P1;durP2;ratioP2;P2;SDS_P1;SDS_P2;PMS_P1;PMS_P2;Temp;Humidity;BMP_temperature;BMP_pressure;BME280_temperature;BME280_humidity;BME280_pressure;Samples;Min_cycle;Max_cycle;Signal;HPM_P1;HPM_P2
2022/11/16 00:01:13;;;;;;;8.70;2.73;;;;;;;;;;1802314;79;26223;-64
2022/11/16 00:03:42;;;;;;;6.53;3.20;;;;;;;;;;1819387;79;26189;-64
2022/11/16 00:06:11;;;;;;;5.53;3.00;;;;;;;;;;1802251;78;27111;-64
2022/11/16 00:08:40;;;;;;;6.27;2.90;;;;;;;;;;1782718;80;26735;-64
2022/11/16 00:11:09;;;;;;;5.37;2.60;;;;;;;;;;1817062;79;26343;-64
2022/11/16 00:13:39;;;;;;;5.97;2.33;;;;;;;;;;1819475;79;26237;-64
2022/11/16 00:16:08;;;;;;;4.67;2.90;;;;;;;;;;1802420;79;26294;-64
2022/11/16 00:18:36;;;;;;;4.27;2.47;;;;;;;;;;1819260;79;26230;-64
2022/11/16 00:21:05;;;;;;;5.40;3.17;;;;;;;;;;1802423;79;26335;-65
2022/11/16 00:23:37;;;;;;;4.80;2.97;;;;;;;;;;1819171;79;26752;-64
2022/11/16 00:26:06;;;;;;;3.40;2.47;;;;;;;;;;1802417;79;26492;-64
2022/11/16 00:28:34;;;;;;;6.00;2.73;;;;;;;;;;1819383;79;26236;-64
2022/11/16 00:31:04;;;;;;;7.17;3.00;;;;;;;;;;1802488;79;26410;-64
2022/11/16 00:33:32;;;;;;;4.77;2.80;;;;;;;;;;1819328;79;26305;-64
2022/11/16 00:36:01;;;;;;;5.40;2.97;;;;;;;;;;1802300;79;26238;-64
2022/11/16 00:38:29;;;;;;;10.83;6.60;;;;;;;;;;1819274;79;26229;-64
2022/11/16 00:40:58;;;;;;;7.83;7.13;;;;;;;;;;1782688;79;26296;-64
2022/11/16 00:43:26;;;;;;;7.80;7.03;;;;;;;;;;1782549;80;26229;-64
2022/11/16 00:45:55;;;;;;;6.87;6.33;;;;;;;;;;1817039;79;26238;-64
2022/11/16 00:48:23;;;;;;;7.23;6.70;;;;;;;;;;1819311;79;26243;-64
2022/11/16 00:50:51;;;;;;;7.03;6.40;;;;;;;;;;1802323;79;26262;-64
2022/11/16 00:53:18;;;;;;;;;;;;;;;;;;1821383;79;25221;-64
2022/11/16 00:55:45;;;;;;;;;;;;;;;;;;1805219;79;21589;-64
2022/11/16 00:58:15;;;;;;;7.43;2.60;;;;;;;;;;1819218;79;25782;-64
2022/11/16 01:00:43;;;;;;;5.50;2.63;;;;;;;;;;1802320;79;26723;-64
2022/11/16 01:03:12;;;;;;;4.80;2.30;;;;;;;;;;1819110;79;26248;-64
2022/11/16 01:05:40;;;;;;;5.93;3.07;;;;;;;;;;1802351;79;26289;-64
2022/11/16 01:08:09;;;;;;;6.00;2.70;;;;;;;;;;1819256;77;26352;-64
2022/11/16 01:10:38;;;;;;;6.83;2.50;;;;;;;;;;1782626;80;26259;-64
2022/11/16 01:13:07;;;;;;;8.33;2.93;;;;;;;;;;1817372;79;26230;-64
2022/11/16 01:15:35;;;;;;;9.43;2.70;;;;;;;;;;1817035;79;26233;-64
2022/11/16 01:18:03;;;;;;;5.83;2.47;;;;;;;;;;1817090;79;26340;-64
2022/11/16 01:20:32;;;;;;;4.37;2.50;;;;;;;;;;1817258;79;26234;-65
2022/11/16 01:23:00;;;;;;;5.77;2.50;;;;;;;;;;1817158;79;26288;-64
2022/11/16 01:25:29;;;;;;;5.77;2.60;;;;;;;;;;1787533;79;26844;-64
2022/11/16 01:27:58;;;;;;;5.40;2.50;;;;;;;;;;1819212;79;26303;-65
2022/11/16 01:30:26;;;;;;;3.90;2.50;;;;;;;;;;1802261;79;26231;-64
2022/11/16 01:32:55;;;;;;;6.47;2.47;;;;;;;;;;1775477;79;26298;-64
2022/11/16 01:35:23;;;;;;;7.43;2.73;;;;;;;;;;1819198;79;26296;-64
2022/11/16 01:37:51;;;;;;;4.03;2.37;;;;;;;;;;1802381;79;26689;-64
2022/11/16 01:40:20;;;;;;;4.23;2.57;;;;;;;;;;1791564;79;26307;-64
2022/11/16 01:42:48;;;;;;;5.87;2.30;;;;;;;;;;1782594;79;26280;-64
2022/11/16 01:45:18;;;;;;;4.57;2.13;;;;;;;;;;1817095;79;26234;-64
2022/11/16 01:47:47;;;;;;;6.60;2.40;;;;;;;;;;1819092;79;26226;-64
2022/11/16 01:50:16;;;;;;;4.33;2.40;;;;;;;;;;1782747;80;26817;-64
2022/11/16 01:52:46;;;;;;;6.57;2.47;;;;;;;;;;1817165;79;26254;-64
2022/11/16 01:55:14;;;;;;;4.40;2.20;;;;;;;;;;1819190;79;26330;-65
2022/11/16 01:57:43;;;;;;;6.97;2.13;;;;;;;;;;1802272;79;27162;-64
2022/11/16 02:00:13;;;;;;;5.23;2.23;;;;;;;;;;1819230;79;26246;-64
2022/11/16 02:02:42;;;;;;;3.53;2.10;;;;;;;;;;1802086;79;26234;-64
2022/11/16 02:05:12;;;;;;;5.33;2.40;;;;;;;;;;1818927;79;26769;-64
2022/11/16 02:10:38;;;;;;;7.20;6.60;;;;;;;;;;1819248;79;26311;-65
2022/11/16 02:13:11;;;;;;;7.27;6.30;;;;;;;;;;1787308;79;26283;-65
2022/11/16 02:15:40;;;;;;;6.83;6.40;;;;;;;;;;1787893;80;26245;-65
2022/11/16 02:18:13;;;;;;;7.63;7.00;;;;;;;;;;1817309;79;26233;-65
2022/11/16 02:20:44;;;;;;;4.10;2.40;;;;;;;;;;1817109;77;26228;-64
2022/11/16 02:23:20;;;;;;;5.33;2.53;;;;;;;;;;1787921;80;26233;-65
2022/11/16 02:25:50;;;;;;;4.10;2.40;;;;;;;;;;1787686;79;26216;-64
2022/11/16 02:28:25;;;;;;;2.37;1.97;;;;;;;;;;1817423;79;26234;-64
2022/11/16 02:30:55;;;;;;;2.77;2.30;;;;;;;;;;1785660;79;26296;-64
2022/11/16 02:33:25;;;;;;;6.00;2.60;;;;;;;;;;1784808;79;26294;-65
2022/11/16 02:35:54;;;;;;;6.30;2.50;;;;;;;;;;1815253;79;26387;-64
2022/11/16 02:38:25;;;;;;;4.53;2.50;;;;;;;;;;1815717;79;26309;-64
2022/11/16 02:40:54;;;;;;;4.17;2.33;;;;;;;;;;1819211;77;26247;-64
2022/11/16 02:43:25;;;;;;;3.70;2.83;;;;;;;;;;1787894;80;26257;-64
2022/11/16 02:45:55;;;;;;;4.97;2.40;;;;;;;;;;1786904;79;26250;-64
2022/11/16 02:48:25;;;;;;;4.83;2.90;;;;;;;;;;1814511;79;26800;-64
2022/11/16 02:50:53;;;;;;;3.47;2.20;;;;;;;;;;1782506;80;26245;-64
2022/11/16 02:53:23;;;;;;;7.60;7.10;;;;;;;;;;1782705;80;26253;-64
2022/11/16 02:55:51;;;;;;;8.80;8.27;;;;;;;;;;1817146;79;26234;-64
2022/11/16 02:58:21;;;;;;;8.10;7.60;;;;;;;;;;1818777;79;26316;-64
2022/11/16 03:00:51;;;;;;;8.00;7.30;;;;;;;;;;1800167;79;26282;-64
2022/11/16 03:03:22;;;;;;;8.57;7.93;;;;;;;;;;1785420;80;26538;-64
2022/11/16 03:05:51;;;;;;;8.70;8.10;;;;;;;;;;1817186;79;26292;-64
2022/11/16 03:08:22;;;;;;;9.40;8.60;;;;;;;;;;1817214;77;26309;-64
2022/11/16 03:13:39;;;;;;;8.87;8.30;;;;;;;;;;1802682;79;26313;-64
2022/11/16 03:16:07;;;;;;;;;;;;;;;;;;1785318;80;26197;-64
2022/11/16 03:18:33;;;;;;;;;;;;;;;;;;1819960;79;20543;-64
2022/11/16 03:21:00;;;;;;;;;;;;;;;;;;1822059;79;20198;-64
2022/11/16 03:23:27;;;;;;;;;;;;;;;;;;1805089;79;20462;-64
2022/11/16 03:25:54;;;;;;;;;;;;;;;;;;1822041;79;20430;-64
2022/11/16 03:28:21;;;;;;;;;;;;;;;;;;1821994;79;20552;-64
2022/11/16 03:30:48;;;;;;;;;;;;;;;;;;1805071;79;20137;-64
2022/11/16 03:33:15;;;;;;;;;;;;;;;;;;1822041;79;20159;-64
2022/11/16 03:35:41;;;;;;;;;;;;;;;;;;1805172;79;20188;-64
2022/11/16 03:38:08;;;;;;;;;;;;;;;;;;1822028;79;20145;-64
2022/11/16 03:40:35;;;;;;;;;;;;;;;;;;1804981;78;20145;-64
2022/11/16 03:43:02;;;;;;;;;;;;;;;;;;1822100;79;20140;-64
2022/11/16 03:45:29;;;;;;;;;;;;;;;;;;1805130;79;20212;-64
2022/11/16 03:47:56;;;;;;;;;;;;;;;;;;1821942;79;20187;-64
2022/11/16 03:50:23;;;;;;;;;;;;;;;;;;1805085;79;20157;-64
2022/11/16 03:52:50;;;;;;;;;;;;;;;;;;1821964;79;20167;-64
2022/11/16 03:55:16;;;;;;;;;;;;;;;;;;1805086;79;20512;-64
2022/11/16 03:57:43;;;;;;;;;;;;;;;;;;1821771;79;20509;-64
2022/11/16 04:00:10;;;;;;;;;;;;;;;;;;1805108;79;20557;-64
2022/11/16 04:02:37;;;;;;;;;;;;;;;;;;1821794;79;20179;-65
2022/11/16 04:24:28;;;;;;;;;;;;;;;;;;1802292;79;20141;-64
2022/11/16 04:29:39;;;;;;;;;;;;;;;;;;1822061;79;20140;-65
2022/11/16 04:37:51;;;;;;;;;;;;;;;;;;1805048;79;20155;-64
2022/11/16 04:40:18;;;;;;;;;;;;;;;;;;1805038;79;20265;-64
2022/11/16 04:42:45;;;;;;;;;;;;;;;;;;1821934;77;20413;-64
2022/11/16 04:47:56;;;;;;;;;;;;;;;;;;1821911;79;20136;-65
2022/11/16 04:50:23;;;;;;;;;;;;;;;;;;1804873;79;20148;-64
2022/11/16 04:52:50;;;;;;;;;;;;;;;;;;1821906;79;20194;-64
2022/11/16 04:55:17;;;;;;;;;;;;;;;;;;1804979;79;20203;-64
2022/11/16 04:57:43;;;;;;;;;;;;;;;;;;1822198;79;20147;-64
2022/11/16 05:00:10;;;;;;;;;;;;;;;;;;1795253;79;449279;-63
2022/11/16 05:02:37;;;;;;;;;;;;;;;;;;1719165;83;20198;-64
2022/11/16 05:05:04;;;;;;;;;;;;;;;;;;1720770;83;20163;-64
2022/11/16 05:07:31;;;;;;;;;;;;;;;;;;1712646;84;20195;-64
2022/11/16 05:09:58;;;;;;;;;;;;;;;;;;1720875;82;20191;-64
2022/11/16 05:12:25;;;;;;;;;;;;;;;;;;1712272;84;20175;-64
2022/11/16 05:14:52;;;;;;;;;;;;;;;;;;1712537;84;20172;-65
2022/11/16 05:17:19;;;;;;;;;;;;;;;;;;1720890;83;20155;-64
2022/11/16 05:22:30;;;;;;;;;;;;;;;;;;1720988;83;20432;-64
2022/11/16 05:24:57;;;;;;;;;;;;;;;;;;1712618;84;20525;-64
2022/11/16 05:27:24;;;;;;;;;;;;;;;;;;1720762;83;20147;-64
2022/11/16 05:29:51;;;;;;;;;;;;;;;;;;1712710;84;20156;-64
2022/11/16 05:32:18;;;;;;;;;;;;;;;;;;1720667;83;20167;-64
2022/11/16 05:34:44;;;;;;;;;;;;;;;;;;1712553;84;20563;-65
2022/11/16 05:37:11;;;;;;;;;;;;;;;;;;1720658;83;20417;-64
2022/11/16 05:39:38;;;;;;;;;;;;;;;;;;1712867;84;20163;-65
2022/11/16 05:42:05;;;;;;;;;;;;;;;;;;1720922;83;20170;-65
2022/11/16 05:44:32;;;;;;;;;;;;;;;;;;1712790;84;20160;-67
2022/11/16 05:46:59;;;;;;;;;;;;;;;;;;1720686;83;20425;-64
2022/11/16 05:49:26;;;;;;;;;;;;;;;;;;1712489;84;20725;-64
2022/11/16 05:51:53;;;;;;;;;;;;;;;;;;1712672;84;20168;-65
2022/11/16 05:54:19;;;;;;;;;;;;;;;;;;1720780;83;20547;-64
2022/11/16 05:56:46;;;;;;;;;;;;;;;;;;1712483;84;20434;-64
2022/11/16 05:59:14;;;;;;;;;;;;;;;;;;1719753;83;20478;-64
2022/11/16 06:01:41;;;;;;;;;;;;;;;;;;1710728;84;20318;-64
2022/11/16 06:04:08;;;;;;;;;;;;;;;;;;1719070;83;20484;-64
2022/11/16 06:06:35;;;;;;;;;;;;;;;;;;1710997;84;20188;-64
2022/11/16 06:09:02;;;;;;;;;;;;;;;;;;1719326;82;20183;-64
2022/11/16 06:11:28;;;;;;;;;;;;;;;;;;1710936;84;20215;-64
2022/11/16 06:13:55;;;;;;;;;;;;;;;;;;1719308;83;20203;-64
2022/11/16 06:16:22;;;;;;;;;;;;;;;;;;1734897;82;20160;-64
2022/11/16 06:18:49;;;;;;;;;;;;;;;;;;1720666;83;20232;-64
2022/11/16 06:21:16;;;;;;;;;;;;;;;;;;1712506;84;20199;-64
2022/11/16 06:23:43;;;;;;;;;;;;;;;;;;1720875;83;20156;-65
2022/11/16 06:26:10;;;;;;;;;;;;;;;;;;1712603;84;20151;-64
2022/11/16 06:28:36;;;;;;;;;;;;;;;;;;1720869;83;20147;-64
2022/11/16 06:31:03;;;;;;;;;;;;;;;;;;1712672;84;20148;-64
2022/11/16 06:33:30;;;;;;;;;;;;;;;;;;1720764;83;20191;-64
2022/11/16 06:35:57;;;;;;;;;;;;;;;;;;1712581;84;20159;-64
2022/11/16 06:38:24;;;;;;;;;;;;;;;;;;1712597;84;20159;-64
2022/11/16 06:40:51;;;;;;;;;;;;;;;;;;1720732;83;20167;-65
2022/11/16 06:43:18;;;;;;;;;;;;;;;;;;1712683;84;20179;-64
2022/11/16 06:45:44;;;;;;;;;;;;;;;;;;1712426;84;20480;-64
2022/11/16 06:48:11;;;;;;;;;;;;;;;;;;1720822;83;20448;-64
2022/11/16 06:50:38;;;;;;;;;;;;;;;;;;1712527;84;20163;-64
2022/11/16 06:53:05;;;;;;;;;;;;;;;;;;1712609;84;20168;-64
2022/11/16 06:55:32;;;;;;;;;;;;;;;;;;1720826;83;20144;-64
2022/11/16 06:57:59;;;;;;;;;;;;;;;;;;1712923;84;20393;-64
2022/11/16 07:00:27;;;;;;;;;;;;;;;;;;1720771;83;20225;-64
2022/11/16 07:02:54;;;;;;;;;;;;;;;;;;1712603;84;20175;-64
2022/11/16 07:05:20;;;;;;;;;;;;;;;;;;1720909;83;20202;-64
2022/11/16 07:07:47;;;;;;;;;;;;;;;;;;1712739;84;20159;-64
2022/11/16 07:10:14;;;;;;;;;;;;;;;;;;1720662;80;20166;-64
2022/11/16 07:12:41;;;;;;;;;;;;;;;;;;1712812;84;20163;-64
2022/11/16 07:15:08;;;;;;;;;;;;;;;;;;1720947;83;20147;-64
2022/11/16 07:17:35;;;;;;;;;;;;;;;;;;1712679;84;20206;-64
2022/11/16 07:20:02;;;;;;;;;;;;;;;;;;1712758;84;20163;-64
2022/11/16 07:22:29;;;;;;;;;;;;;;;;;;1720887;83;20244;-64
2022/11/16 07:24:56;;;;;;;;;;;;;;;;;;1712578;84;20445;-64
2022/11/16 07:27:23;;;;;;;;;;;;;;;;;;1720829;83;20437;-64
2022/11/16 07:29:50;;;;;;;;;;;;;;;;;;1712673;84;20156;-64
2022/11/16 07:32:16;;;;;;;;;;;;;;;;;;1712434;84;20211;-64
2022/11/16 07:34:43;;;;;;;;;;;;;;;;;;1720737;83;20523;-64
2022/11/16 07:37:10;;;;;;;;;;;;;;;;;;1712500;84;20160;-64
2022/11/16 07:39:37;;;;;;;;;;;;;;;;;;1720919;83;20155;-73
2022/11/16 07:42:04;;;;;;;;;;;;;;;;;;1712598;84;20168;-64
2022/11/16 07:44:31;;;;;;;;;;;;;;;;;;1695978;83;20159;-65
2022/11/16 07:47:00;;;;;;;;;;;;;;;;;;1712741;84;20148;-64
2022/11/16 07:49:26;;;;;;;;;;;;;;;;;;1712763;84;20461;-64
2022/11/16 07:51:53;;;;;;;;;;;;;;;;;;1720827;83;20164;-64
2022/11/16 07:54:20;;;;;;;;;;;;;;;;;;1712593;84;20540;-64
2022/11/16 07:56:47;;;;;;;;;;;;;;;;;;1720856;83;20437;-65
2022/11/16 07:59:14;;;;;;;;;;;;;;;;;;1712753;84;20159;-65
2022/11/16 08:01:41;;;;;;;;;;;;;;;;;;1719098;83;20210;-65
2022/11/16 08:04:08;;;;;;;;;;;;;;;;;;1711179;84;20172;-65
2022/11/16 08:06:35;;;;;;;;;;;;;;;;;;1710917;84;20179;-65
2022/11/16 08:09:01;;;;;;;;;;;;;;;;;;1694822;83;20163;-66
2022/11/16 08:11:28;;;;;;;;;;;;;;;;;;1720885;82;20201;-66
2022/11/16 08:13:55;;;;;;;;;;;;;;;;;;1712627;84;20175;-66
2022/11/16 08:16:22;;;;;;;;;;;;;;;;;;1720731;83;20764;-66
2022/11/16 08:18:49;;;;;;;;;;;;;;;;;;1712638;84;20539;-66
2022/11/16 08:21:16;;;;;;;;;;;;;;;;;;1720867;83;20459;-66
2022/11/16 08:23:44;;;;;;;;;;;;;;;;;;1712697;84;20453;-66
2022/11/16 08:26:13;;;;;;;;;;;;;;;;;;1720721;83;20202;-66
2022/11/16 08:28:39;;;;;;;;;;;;;;;;;;1712923;84;20160;-67
2022/11/16 08:31:06;;;;;;;;;;;;;;;;;;1720962;83;20155;-68
2022/11/16 08:33:33;;;;;;;;;;;;;;;;;;1712727;84;20192;-68
2022/11/16 08:36:00;;;;;;;;;;;;;;;;;;1720746;83;20464;-69
2022/11/16 08:38:27;;;;;;;;;;;;;;;;;;1711359;84;20631;-65
2022/11/16 08:40:54;;;;;;;;;;;;;;;;;;1692540;83;20202;-68
2022/11/16 08:43:21;;;;;;;;;;;;;;;;;;1720788;83;20188;-68
2022/11/16 08:45:48;;;;;;;;;;;;;;;;;;1712601;84;20147;-68
2022/11/16 08:48:14;;;;;;;;;;;;;;;;;;1720694;83;20483;-67
2022/11/16 08:50:41;;;;;;;;;;;;;;;;;;1712536;84;20569;-67
2022/11/16 08:53:09;;;;;;;;;;;;;;;;;;1720646;83;20203;-68
2022/11/16 08:55:36;;;;;;;;;;;;;;;;;;1712458;84;20160;-68
2022/11/16 08:58:03;;;;;;;;;;;;;;;;;;1712608;84;20197;-67
2022/11/16 09:00:30;;;;;;;;;;;;;;;;;;1720707;83;20163;-67
2022/11/16 09:02:57;;;;;;;;;;;;;;;;;;1712882;84;20165;-67
2022/11/16 09:05:23;;;;;;;;;;;;;;;;;;1720846;83;20187;-68
2022/11/16 09:07:50;;;;;;;;;;;;;;;;;;1712783;84;20215;-67
2022/11/16 09:10:21;;;;;;;;;;;;;;;;;;1720731;82;20421;-67
2022/11/16 09:12:46;;;;;;;;;;;;;;;;;;1694163;84;20274;-67
2022/11/16 09:15:13;;;;;;;;;;;;;;;;;;1718166;83;20444;-67
2022/11/16 09:17:40;;;;;;;;;;;;;;;;;;1718757;83;20949;-67
2022/11/16 09:20:07;;;;;;;;;;;;;;;;;;1711128;84;20199;-67
2022/11/16 09:22:34;;;;;;;;;;;;;;;;;;1719108;83;20805;-67
2022/11/16 09:25:01;;;;;;;;;;;;;;;;;;1711177;84;20441;-69
2022/11/16 09:27:28;;;;;;;;;;;;;;;;;;1710994;84;20311;-67
2022/11/16 09:29:56;;;;;;;;;;;;;;;;;;1719492;83;20222;-67
2022/11/16 09:32:23;;;;;;;;;;;;;;;;;;1733118;82;20186;-67
2022/11/16 09:34:49;;;;;;;;;;;;;;;;;;1693005;83;20883;-67
2022/11/16 09:37:16;;;;;;;;;;;;;;;;;;1719127;83;20877;-67
2022/11/16 09:39:43;;;;;;;;;;;;;;;;;;1710847;84;20225;-67
2022/11/16 09:42:10;;;;;;;;;;;;;;;;;;1718938;83;20594;-67
2022/11/16 09:44:37;;;;;;;;;;;;;;;;;;1712564;84;20160;-67
2022/11/16 09:47:04;;;;;;;;;;;;;;;;;;1710635;84;20197;-67
2022/11/16 09:49:31;;;;;;;;;;;;;;;;;;1711045;84;20342;-67
2022/11/16 09:51:58;;;;;;;;;;;;;;;;;;1718938;83;20524;-67
2022/11/16 09:54:25;;;;;;;;;;;;;;;;;;1711412;84;20461;-67
2022/11/16 09:56:52;;;;;;;;;;;;;;;;;;1719206;83;20507;-67
2022/11/16 09:59:19;;;;;;;;;;;;;;;;;;1719267;83;20503;-67
2022/11/16 10:01:45;;;;;;;;;;;;;;;;;;1710759;84;20465;-67
2022/11/16 10:04:13;;;;;;;;;;;;;;;;;;1719143;83;20190;-67
2022/11/16 10:06:40;;;;;;;;;;;;;;;;;;1712639;84;20156;-67
2022/11/16 10:09:07;;;;;;;;;;;;;;;;;;1720694;83;20175;-67
2022/11/16 10:11:34;;;;;;;;;;;;;;;;;;1712606;82;20164;-67
2022/11/16 10:14:01;;;;;;;;;;;;;;;;;;1720867;83;20171;-67
2022/11/16 10:16:30;;;;;;;;;;;;;;;;;;1712521;84;20238;-68
2022/11/16 10:18:56;;;;;;;;;;;;;;;;;;1712569;84;20160;-68
2022/11/16 10:21:23;;;;;;;;;;;;;;;;;;1712513;84;20695;-67
2022/11/16 10:23:50;;;;;;;;;;;;;;;;;;1720478;83;20453;-67
2022/11/16 10:26:17;;;;;;;;;;;;;;;;;;1710924;84;20929;-67
2022/11/16 10:28:43;;;;;;;;;;;;;;;;;;1710687;84;20456;-67
2022/11/16 10:31:10;;;;;;;;;;;;;;;;;;1710924;84;20472;-67
2022/11/16 10:33:37;;;;;;;;;;;;;;;;;;1719254;83;20211;-67
2022/11/16 10:36:05;;;;;;;;;;;;;;;;;;1711054;84;20222;-67
2022/11/16 10:38:32;;;;;;;;;;;;;;;;;;1719485;83;20179;-67
2022/11/16 10:40:59;;;;;;;;;;;;;;;;;;1710744;84;20744;-67
2022/11/16 10:43:25;;;;;;;;;;;;;;;;;;1692889;83;20323;-67
2022/11/16 10:45:54;;;;;;;;;;;;;;;;;;1687403;84;20232;-67
2022/11/16 10:48:21;;;;;;;;;;;;;;;;;;1694543;83;20183;-67
2022/11/16 10:50:48;;;;;;;;;;;;;;;;;;1711118;84;20296;-67
2022/11/16 10:53:15;;;;;;;;;;;;;;;;;;1719141;83;20219;-67
2022/11/16 10:55:41;;;;;;;;;;;;;;;;;;1711146;84;21036;-67
2022/11/16 10:58:08;;;;;;;;;;;;;;;;;;1718884;83;20448;-67
2022/11/16 11:00:38;;;;;;;;;;;;;;;;;;1710984;84;20199;-67
2022/11/16 11:03:05;;;;;;;;;;;;;;;;;;1719226;83;20221;-67
2022/11/16 11:05:33;;;;;;;;;;;;;;;;;;1710999;84;20183;-67
2022/11/16 11:08:00;;;;;;;;;;;;;;;;;;1692928;83;20183;-67
2022/11/16 11:10:27;;;;;;;;;;;;;;;;;;1718975;83;20183;-70
2022/11/16 11:12:54;;;;;;;;;;;;;;;;;;1711027;82;20199;-67
2022/11/16 11:15:21;;;;;;;;;;;;;;;;;;1711147;84;20172;-67
2022/11/16 11:17:48;;;;;;;;;;;;;;;;;;1718893;83;20182;-67
2022/11/16 11:20:15;;;;;;;;;;;;;;;;;;1733397;82;20191;-67
2022/11/16 11:22:42;;;;;;;;;;;;;;;;;;1692702;83;20183;-67
2022/11/16 11:25:09;;;;;;;;;;;;;;;;;;1718955;83;20244;-67
2022/11/16 11:27:36;;;;;;;;;;;;;;;;;;1711195;84;20191;-67
2022/11/16 11:30:03;;;;;;;;;;;;;;;;;;1692963;83;20194;-67
2022/11/16 11:32:30;;;;;;;;;;;;;;;;;;1719195;83;20225;-67
2022/11/16 11:34:58;;;;;;;;;;;;;;;;;;1733062;82;20516;-68
2022/11/16 11:37:25;;;;;;;;;;;;;;;;;;1692634;83;20195;-68
2022/11/16 11:39:52;;;;;;;;;;;;;;;;;;1719412;83;20194;-67
2022/11/16 11:42:19;;;;;;;;;;;;;;;;;;1732862;82;20192;-67
2022/11/16 11:44:49;;;;;;;;;;;;;;;;;;1711064;84;20571;-67
2022/11/16 11:47:14;;;;;;;;;;;;;;;;;;1686184;84;20191;-66
2022/11/16 11:49:41;;;;;;;;;;;;;;;;;;1719176;83;20453;-67
2022/11/16 11:52:08;;;;;;;;;;;;;;;;;;1710800;84;20183;-67
2022/11/16 11:54:35;;;;;;;;;;;;;;;;;;1693163;83;20203;-67
2022/11/16 11:57:02;;;;;;;;;;;;;;;;;;1718839;83;20195;-67
2022/11/16 11:59:29;;;;;;;;;;;;;;;;;;1733139;82;20293;-67
2022/11/16 12:01:56;;;;;;;;;;;;;;;;;;1718592;83;20219;-67
2022/11/16 12:04:22;;;;;;;;;;;;;;;;;;1710767;84;20187;-70
2022/11/16 12:06:49;;;;;;;;;;;;;;;;;;1718807;83;20198;-69
2022/11/16 12:09:16;;;;;;;;;;;;;;;;;;1733063;82;20523;-68
2022/11/16 12:11:43;;;;;;;;;;;;;;;;;;1710639;81;20286;-68
2022/11/16 12:14:10;;;;;;;;;;;;;;;;;;1693037;83;20700;-67
2022/11/16 12:16:37;;;;;;;;;;;;;;;;;;1718866;83;20456;-67
2022/11/16 12:19:04;;;;;;;;;;;;;;;;;;1710945;84;20477;-68
2022/11/16 12:21:31;;;;;;;;;;;;;;;;;;1692340;83;20203;-67
2022/11/16 12:23:57;;;;;;;;;;;;;;;;;;1718930;83;20183;-68
2022/11/16 12:26:25;;;;;;;;;;;;;;;;;;1710702;84;20200;-68
2022/11/16 12:28:51;;;;;;;;;;;;;;;;;;1719151;83;20214;-67
2022/11/16 12:31:18;;;;;;;;;;;;;;;;;;1710698;84;20183;-67
2022/11/16 12:33:45;;;;;;;;;;;;;;;;;;1719003;83;20235;-67
2022/11/16 12:36:12;;;;;;;;;;;;;;;;;;1710873;84;20230;-67
2022/11/16 12:38:39;;;;;;;;;;;;;;;;;;1719076;83;20194;-67
2022/11/16 12:41:06;;;;;;;;;;;;;;;;;;1710673;82;20211;-67
2022/11/16 12:43:32;;;;;;;;;;;;;;;;;;1710826;84;20997;-66
2022/11/16 12:45:59;;;;;;;;;;;;;;;;;;1692423;83;20893;-66
2022/11/16 12:48:26;;;;;;;;;;;;;;;;;;1718922;83;20448;-67
2022/11/16 12:50:53;;;;;;;;;;;;;;;;;;1710932;84;20226;-66
2022/11/16 12:53:20;;;;;;;;;;;;;;;;;;1692756;83;20183;-67
2022/11/16 12:55:47;;;;;;;;;;;;;;;;;;1687155;84;20543;-68
2022/11/16 12:58:14;;;;;;;;;;;;;;;;;;1702011;84;20509;-67
2022/11/16 13:00:41;;;;;;;;;;;;;;;;;;1701658;84;20220;-67
2022/11/16 13:03:07;;;;;;;;;;;;;;;;;;1701741;84;20934;-66
2022/11/16 13:05:34;;;;;;;;;;;;;;;;;;1701610;84;20508;-69
2022/11/16 13:08:01;;;;;;;;;;;;;;;;;;1687153;84;20489;-67
2022/11/16 13:10:28;;;;;;;;;;;;;;;;;;1701794;84;20899;-67
2022/11/16 13:12:55;;;;;;;;;;;;;;;;;;1701699;83;20329;-67
2022/11/16 13:15:22;;;;;;;;;;;;;;;;;;1701601;84;20208;-67
2022/11/16 13:17:49;;;;;;;;;;;;;;;;;;1701985;84;20224;-67
2022/11/16 13:20:16;;;;;;;;;;;;;;;;;;1701957;84;20208;-66
2022/11/16 13:22:43;;;;;;;;;;;;;;;;;;1687205;84;20228;-67
2022/11/16 13:25:10;;;;;;;;;;;;;;;;;;1701665;84;20292;-68
2022/11/16 13:27:37;;;;;;;;;;;;;;;;;;1687476;84;20259;-67
2022/11/16 13:30:05;;;;;;;;;;;;;;;;;;1719003;83;20330;-66
2022/11/16 13:32:32;;;;;;;;;;;;;;;;;;1733300;82;20171;-66
2022/11/16 13:34:59;;;;;;;;;;;;;;;;;;1694533;83;20763;-66
2022/11/16 13:37:26;;;;;;;;;;;;;;;;;;1720640;83;20237;-66
2022/11/16 13:39:53;;;;;;;;;;;;;;;;;;1712599;84;20196;-66
2022/11/16 13:42:20;;;;;;;;;;;;;;;;;;1720845;83;20387;-66
2022/11/16 13:44:47;;;;;;;;;;;;;;;;;;1712704;84;20163;-66
2022/11/16 13:47:14;;;;;;;;;;;;;;;;;;1719813;83;20175;-68
2022/11/16 13:49:41;;;;;;;;;;;;;;;;;;1710919;84;20188;-67
2022/11/16 13:52:08;;;;;;;;;;;;;;;;;;1719181;83;20179;-67
2022/11/16 13:54:35;;;;;;;;;;;;;;;;;;1711228;84;20191;-67
2022/11/16 13:57:02;;;;;;;;;;;;;;;;;;1718892;83;20187;-66
2022/11/16 13:59:28;;;;;;;;;;;;;;;;;;1710886;84;20484;-66
2022/11/16 14:01:56;;;;;;;;;;;;;;;;;;1710549;84;20183;-66
2022/11/16 14:04:23;;;;;;;;;;;;;;;;;;1687931;84;20543;-66
2022/11/16 14:06:49;;;;;;;;;;;;;;;;;;1720735;83;20153;-66
2022/11/16 14:09:16;;;;;;;;;;;;;;;;;;1712543;84;20148;-66
2022/11/16 14:11:43;;;;;;;;;;;;;;;;;;1720844;83;20531;-67
2022/11/16 14:14:10;;;;;;;;;;;;;;;;;;1712712;82;20159;-66
2022/11/16 14:16:37;;;;;;;;;;;;;;;;;;1720917;83;20504;-66
2022/11/16 14:19:04;;;;;;;;;;;;;;;;;;1712611;84;20461;-66
2022/11/16 14:21:30;;;;;;;;;;;;;;;;;;1720695;83;20740;-66
2022/11/16 14:23:57;;;;;;;;;;;;;;;;;;1712660;84;20463;-66
2022/11/16 14:26:24;;;;;;;;;;;;;;;;;;1720701;83;20135;-66
2022/11/16 14:28:51;;;;;;;;;;;;;;;;;;1712699;84;20148;-66
2022/11/16 14:31:18;;;;;;;;;;;;;;;;;;1720773;83;20228;-66
2022/11/16 14:33:45;;;;;;;;;;;;;;;;;;1711326;84;20503;-67
2022/11/16 14:36:12;;;;;;;;;;;;;;;;;;1719485;83;20167;-66
2022/11/16 14:38:38;;;;;;;;;;;;;;;;;;1710853;84;20468;-66
2022/11/16 14:41:05;;;;;;;;;;;;;;;;;;1710832;84;20936;-66
2022/11/16 14:43:32;;;;;;;;;;;;;;;;;;1719163;83;20432;-66
2022/11/16 14:45:59;;;;;;;;;;;;;;;;;;1711041;84;20496;-66
2022/11/16 14:48:26;;;;;;;;;;;;;;;;;;1693073;83;20583;-66
2022/11/16 14:50:53;;;;;;;;;;;;;;;;;;1687245;84;20253;-69
2022/11/16 14:53:20;;;;;;;;;;;;;;;;;;1720935;83;20199;-66
2022/11/16 14:55:47;;;;;;;;;;;;;;;;;;1712501;84;20171;-67
2022/11/16 14:58:14;;;;;;;;;;;;;;;;;;1720866;83;20155;-67
2022/11/16 15:00:41;;;;;;;;;;;;;;;;;;1712522;84;20152;-68
2022/11/16 15:03:08;;;;;;;;;;;;;;;;;;1720702;83;20159;-68
2022/11/16 15:05:34;;;;;;;;;;;;;;;;;;1712480;84;20164;-68
2022/11/16 15:08:01;;;;;;;;;;;;;;;;;;1720885;83;20159;-66
2022/11/16 15:10:28;;;;;;;;;;;;;;;;;;1720667;83;20729;-66
2022/11/16 15:12:55;;;;;;;;;;;;;;;;;;1712422;82;20449;-66
2022/11/16 15:15:22;;;;;;;;;;;;;;;;;;1720900;83;20753;-66
2022/11/16 15:17:49;;;;;;;;;;;;;;;;;;1712502;84;20198;-66
2022/11/16 15:20:16;;;;;;;;;;;;;;;;;;1720758;83;20160;-66
2022/11/16 15:22:43;;;;;;;;;;;;;;;;;;1712583;84;20599;-66
2022/11/16 15:25:09;;;;;;;;;;;;;;;;;;1720842;83;20460;-66
2022/11/16 15:27:36;;;;;;;;;;;;;;;;;;1712896;84;20160;-67
2022/11/16 15:30:03;;;;;;;;;;;;;;;;;;1720701;83;20154;-67
2022/11/16 15:32:36;;;;;;;;;;;;;;;;;;1720886;82;20151;-67
2022/11/16 15:34:58;;;;;;;;;;;;;;;;;;1720094;83;20207;-72
2022/11/16 15:37:25;;;;;;;;;;;;;;;;;;1712481;84;20566;-69
2022/11/16 15:39:53;;;;;;;;;;;;;;;;;;1712497;84;20722;-66
2022/11/16 15:42:19;;;;;;;;;;;;;;;;;;1711382;84;20718;-67
2022/11/16 15:44:46;;;;;;;;;;;;;;;;;;1719261;83;20455;-69
2022/11/16 15:47:13;;;;;;;;;;;;;;;;;;1711114;84;20195;-67
2022/11/16 15:49:40;;;;;;;;;;;;;;;;;;1711068;84;20168;-67
2022/11/16 15:52:07;;;;;;;;;;;;;;;;;;1719194;83;20475;-66
2022/11/16 15:55:02;;;;;;;;;;;;;;;;;;1711030;84;20491;-67
2022/11/16 15:57:03;;;;;;;;;;;;;;;;;;1716056;83;20202;-67
2022/11/16 15:59:30;;;;;;;;;;;;;;;;;;1710788;84;20226;-67
2022/11/16 16:01:57;;;;;;;;;;;;;;;;;;1710554;84;20188;-67
2022/11/16 16:04:24;;;;;;;;;;;;;;;;;;1710705;84;20511;-66
2022/11/16 16:06:51;;;;;;;;;;;;;;;;;;1710543;84;20653;-66
2022/11/16 16:09:18;;;;;;;;;;;;;;;;;;1692644;83;20237;-66
2022/11/16 16:11:44;;;;;;;;;;;;;;;;;;1687412;84;20528;-66
2022/11/16 16:14:12;;;;;;;;;;;;;;;;;;1719071;82;20464;-66
2022/11/16 16:16:38;;;;;;;;;;;;;;;;;;1710771;84;20222;-66
2022/11/16 16:19:05;;;;;;;;;;;;;;;;;;1711105;84;20215;-67
2022/11/16 16:21:32;;;;;;;;;;;;;;;;;;1718946;83;20549;-66
2022/11/16 16:23:59;;;;;;;;;;;;;;;;;;1710802;84;20218;-67
2022/11/16 16:26:26;;;;;;;;;;;;;;;;;;1719182;83;20218;-66
2022/11/16 16:28:53;;;;;;;;;;;;;;;;;;1733083;82;20326;-67
2022/11/16 16:31:20;;;;;;;;;;;;;;;;;;1719226;83;20190;-66
2022/11/16 16:33:46;;;;;;;;;;;;;;;;;;1733070;82;20578;-66
2022/11/16 16:36:14;;;;;;;;;;;;;;;;;;1692215;83;20238;-66
2022/11/16 16:38:41;;;;;;;;;;;;;;;;;;1720976;83;20172;-66
2022/11/16 16:41:08;;;;;;;;;;;;;;;;;;1712441;84;20144;-66
2022/11/16 16:43:34;;;;;;;;;;;;;;;;;;1720807;83;20164;-67
2022/11/16 16:46:01;;;;;;;;;;;;;;;;;;1712431;84;20212;-67
2022/11/16 16:48:28;;;;;;;;;;;;;;;;;;1720664;83;20158;-66
2022/11/16 16:50:56;;;;;;;;;;;;;;;;;;1712543;84;20160;-67
2022/11/16 16:53:22;;;;;;;;;;;;;;;;;;1720794;83;20192;-67
2022/11/16 16:55:49;;;;;;;;;;;;;;;;;;1712579;84;20163;-67
2022/11/16 16:58:16;;;;;;;;;;;;;;;;;;1720769;83;20162;-67